Strona główna
METAR-TAF:

METAR-TAF

Lotnisko :

Ashland, Kentucky, Stany Zjednoczone

Szerokość geograficzna: 38-33-16N, Długość geograficzna: 082-44-17W, wysokość: 166 m

Aktualna obserwacja pogody

Raport powstał 1 godzina i 11 minut temu, godzina 10:56 UTC
Cisza
Temperatura -4°C
Wilgotność 93%
Ciśnienie 1028 hPa
Widzialność: 16.1 km
bezchmurnie

METAR: KDWU 261056Z AUTO 00000KT 10SM CLR M04/M05 A3037 RMK AO2 SLP288 T10391050 FZRANO

czas: 07:07 (12:07 UTC)


TAF: brakujący

Obserwacja i prognoza pogody dla ponad 4000 lotnisk (raport METAR i TAF).

Dostępne stacje oznaczono żółtymi i czerwonymi punktami na mapie.

Najedź kursorem aby zobaczyć nazwę stacji.

Kliknij aby zobaczyć obserwacje i prognozy pogody.

Aby zmienić mapę: kliknij na zielony przycisk z czarnym krzyżykiem, aby powiększyć; na zielony przycisk z myślnikiem, aby pomniejszyć; na zielone strzałki, aby przejść do map sąsiednich.


METAR-TAF: